首页
METAR-TAF:

METAR-TAF

机场 :

S.t James Municipal Airport

St. James, 明尼蘇達州, 美国

纬度: 43-59-11N, 经度: 094-33-29W, 海拔: 325米

当前天气观测

该预报发布于27分钟前的19:55 UTC
静风
温度 -6°C
湿度 79%
气压 1023 hPa
能見度: 8.0公里
阴天层高于700英尺

METAR: KJYG 291955Z AUTO 00000KT 5SM OVC007 M06/M09 A3021 RMK AO2 PWINO

时间: 14:22 (20:22 UTC)


TAF: 丢失

超过4000个机场的气象观测和天气预报(METAR&TAF报告)。

可查询的气象台以黄色和红色小点在地图上表示。

将鼠标移到小点上方,可查看气象台名称。

然后点击查看天气观测和预报。

如需切换地图:点击带黑十字的绿色按钮放大地图;点击带横线的绿色按钮缩小地图;或者点击绿色箭头查看邻近地区的地图。


METAR-TAF: